Terminal Aerodrome Forecast
Issued by NWS

Home | Current Version | Previous Version | Text Only | Print | Product List | Glossary On
Versions: 1 2 3 4 5 6 7 8 9 10 11 12 13 14 15 16 17 18 19 20 21 22 23
470
FTUS43 KDLH 031740
TAFBRD
TAF
KBRD 031740Z 0318/0418 35013G22KT P6SM SKC
     FM032200 32010KT P6SM SCT150
     FM040200 26004KT P6SM VCSH SCT030 OVC050
     FM040600 20003KT 5SM -SN SCT010 BKN015 OVC025
     FM040800 VRB04KT 2SM -SN BR OVC010=

USA.gov is the U.S. government's official web portal to all federal, state and local government web resources and services.